Time;durP1;ratioP1;P1;durP2;ratioP2;P2;SDS_P1;SDS_P2;PMS_P1;PMS_P2;Temp;Humidity;BMP_temperature;BMP_pressure;BME280_temperature;BME280_humidity;BME280_pressure;Samples;Min_cycle;Max_cycle;Signal;HPM_P1;HPM_P2
2022/02/20 00:01:45;;;;;;;1.95;0.70;;;;;;;4.62;100.00;99626.16;5190428;28;20362;-79
2022/02/20 00:04:15;;;;;;;2.75;0.57;;;;;;;4.59;100.00;99623.66;5194663;28;20368;-79
2022/02/20 00:06:45;;;;;;;1.75;0.75;;;;;;;4.59;100.00;99613.31;5194248;28;20030;-79
2022/02/20 00:09:15;;;;;;;1.85;0.63;;;;;;;4.57;100.00;99603.88;5176180;28;20021;-79
2022/02/20 00:11:46;;;;;;;2.45;0.60;;;;;;;4.62;100.00;99600.28;5188107;28;20025;-79
2022/02/20 00:14:16;;;;;;;2.28;0.40;;;;;;;4.65;100.00;99597.63;5173223;28;20021;-79
2022/02/20 00:16:46;;;;;;;3.35;0.60;;;;;;;4.66;100.00;99588.97;5191897;28;20037;-78
2022/02/20 00:19:17;;;;;;;1.67;0.70;;;;;;;4.70;100.00;99588.00;5189480;28;20025;-78
2022/02/20 00:21:47;;;;;;;1.30;0.52;;;;;;;4.70;100.00;99584.56;5192306;28;20032;-79
2022/02/20 00:24:17;;;;;;;1.13;0.45;;;;;;;4.67;100.00;99572.53;5189429;28;20021;-78
2022/02/20 00:26:47;;;;;;;4.65;0.80;;;;;;;4.66;100.00;99564.84;5194023;28;20385;-79
2022/02/20 00:29:18;;;;;;;1.45;0.50;;;;;;;4.72;100.00;99562.06;5193116;28;20025;-79
2022/02/20 00:31:48;;;;;;;1.60;0.45;;;;;;;4.59;100.00;99551.22;5190789;28;20091;-79
2022/02/20 00:34:18;;;;;;;0.82;0.38;;;;;;;4.51;100.00;99562.69;5194899;28;20041;-79
2022/02/20 00:36:48;;;;;;;1.27;0.50;;;;;;;4.64;100.00;99557.13;5193061;28;20117;-79
2022/02/20 00:39:19;;;;;;;0.60;0.40;;;;;;;4.34;100.00;99536.44;5191319;28;20041;-79
2022/02/20 00:41:49;;;;;;;3.28;0.80;;;;;;;4.39;100.00;99552.66;5188293;28;20088;-79
2022/02/20 00:44:19;;;;;;;1.52;0.63;;;;;;;4.46;100.00;99542.09;5172691;28;20391;-79
2022/02/20 00:46:49;;;;;;;1.77;0.55;;;;;;;4.51;100.00;99542.00;5188927;28;20021;-80
2022/02/20 00:49:20;;;;;;;2.58;0.70;;;;;;;4.45;100.00;99543.00;5192664;28;20029;-79
2022/02/20 00:51:50;;;;;;;3.85;0.73;;;;;;;4.44;100.00;99533.53;5188471;28;20217;-79
2022/02/20 00:54:20;;;;;;;1.05;0.43;;;;;;;4.44;100.00;99541.31;5191770;28;20396;-79
2022/02/20 00:56:51;;;;;;;2.00;0.70;;;;;;;4.36;100.00;99540.69;5188291;28;20026;-79
2022/02/20 00:59:21;;;;;;;4.40;0.85;;;;;;;4.35;100.00;99540.72;5188452;28;20425;-79
2022/02/20 01:01:52;;;;;;;0.88;0.40;;;;;;;4.32;100.00;99545.97;5191655;28;20162;-79
2022/02/20 01:04:22;;;;;;;1.85;0.60;;;;;;;4.30;100.00;99546.00;5195105;28;20388;-79
2022/02/20 01:06:55;;;;;;;1.35;0.45;;;;;;;4.38;100.00;99538.91;5192177;28;20064;-79
2022/02/20 01:09:26;;;;;;;1.13;0.50;;;;;;;4.42;100.00;99543.09;5191888;28;20114;-79
2022/02/20 01:11:56;;;;;;;1.77;0.60;;;;;;;4.29;100.00;99552.06;5170048;28;20041;-79
2022/02/20 01:14:26;;;;;;;0.95;0.47;;;;;;;4.32;100.00;99551.97;5187095;28;20475;-79
2022/02/20 01:16:57;;;;;;;2.10;0.60;;;;;;;4.34;100.00;99552.81;5193000;28;20025;-79
2022/02/20 01:19:27;;;;;;;1.48;0.65;;;;;;;4.32;100.00;99551.97;5191337;28;20063;-79
2022/02/20 01:21:57;;;;;;;1.73;0.70;;;;;;;4.30;100.00;99553.75;5189321;28;20029;-79
2022/02/20 01:24:27;;;;;;;1.55;0.60;;;;;;;4.30;100.00;99553.75;5186701;28;20025;-79
2022/02/20 01:26:58;;;;;;;4.40;0.70;;;;;;;4.36;100.00;99547.56;5182769;28;20365;-79
2022/02/20 01:29:28;;;;;;;4.72;0.90;;;;;;;4.24;100.00;99542.72;5189168;28;20033;-79
2022/02/20 01:31:58;;;;;;;6.90;1.10;;;;;;;4.35;100.00;99539.00;5187609;28;20099;-79
2022/02/20 01:34:32;;;;;;;4.43;1.55;;;;;;;4.34;100.00;99536.44;5195785;28;20029;-80
2022/02/20 01:37:03;;;;;;;6.38;1.77;;;;;;;4.41;100.00;99536.22;5192638;28;20053;-79
2022/02/20 01:39:33;;;;;;;4.15;1.92;;;;;;;4.48;100.00;99532.56;5189993;28;20022;-79
2022/02/20 01:42:03;;;;;;;4.93;1.80;;;;;;;4.41;100.00;99538.81;5189108;28;20621;-79
2022/02/20 01:44:34;;;;;;;6.25;2.35;;;;;;;4.51;100.00;99552.34;5171990;28;20107;-79
2022/02/20 01:47:08;;;;;;;5.30;2.50;;;;;;;4.54;100.00;99542.75;5188782;28;20041;-79
2022/02/20 01:49:38;;;;;;;5.30;1.98;;;;;;;4.55;100.00;99547.03;5171251;28;20095;-79
2022/02/20 01:52:09;;;;;;;4.65;1.63;;;;;;;4.53;100.00;99548.81;5189861;28;20492;-79
2022/02/20 01:54:39;;;;;;;4.30;1.48;;;;;;;4.44;100.00;99554.25;5188638;28;20040;-79
2022/02/20 01:57:09;;;;;;;2.15;1.02;;;;;;;4.55;100.00;99549.63;5188311;28;20026;-79
2022/02/20 01:59:40;;;;;;;2.40;1.00;;;;;;;4.56;100.00;99551.31;5188827;28;20037;-79
2022/02/20 02:02:10;;;;;;;1.50;0.50;;;;;;;4.70;100.00;99550.94;5190195;28;20805;-79
2022/02/20 02:04:40;;;;;;;1.25;0.57;;;;;;;4.63;100.00;99557.19;5176482;28;20034;-80
2022/02/20 02:07:11;;;;;;;1.63;0.52;;;;;;;4.53;100.00;99551.41;5192912;28;20025;-79
2022/02/20 02:09:41;;;;;;;2.90;0.50;;;;;;;4.58;100.00;99554.72;5189105;28;20034;-80
2022/02/20 02:12:11;;;;;;;0.85;0.50;;;;;;;4.47;100.00;99559.31;5172151;28;20722;-79
2022/02/20 02:15:02;;;;;;;0.55;0.30;;;;;;;4.50;100.00;99553.22;5189688;28;20049;-79
2022/02/20 02:17:33;;;;;;;1.02;0.30;;;;;;;4.50;100.00;99556.66;5191748;28;20044;-79
2022/02/20 02:20:06;;;;;;;1.42;0.40;;;;;;;4.47;100.00;99555.91;5189557;28;20888;-79
2022/02/20 02:22:36;;;;;;;0.73;0.30;;;;;;;4.46;100.00;99560.22;5188659;28;20030;-79
2022/02/20 02:25:07;;;;;;;1.88;0.30;;;;;;;4.45;100.00;99558.53;5188822;28;20140;-79
2022/02/20 02:27:38;;;;;;;0.55;0.40;;;;;;;4.45;100.00;99566.28;5191718;28;20041;-79
2022/02/20 02:30:10;;;;;;;0.40;0.28;;;;;;;4.43;100.00;99573.22;5189508;28;20022;-79
2022/02/20 02:32:40;;;;;;;0.80;0.30;;;;;;;4.47;100.00;99577.44;5188289;28;20044;-79
2022/02/20 02:35:10;;;;;;;0.30;0.30;;;;;;;4.59;100.00;99571.06;5194284;28;20605;-79
2022/02/20 02:37:40;;;;;;;0.88;0.40;;;;;;;4.54;100.00;99570.34;5190188;28;20048;-79
2022/02/20 02:40:11;;;;;;;0.77;0.30;;;;;;;4.58;100.00;99567.66;5189807;28;20025;-79
2022/02/20 02:42:42;;;;;;;1.08;0.60;;;;;;;4.68;100.00;99581.16;5170522;28;20113;-79
2022/02/20 02:45:12;;;;;;;1.58;0.50;;;;;;;4.70;100.00;99581.97;5190123;28;20529;-80
2022/02/20 02:47:46;;;;;;;1.48;0.50;;;;;;;4.70;100.00;99588.00;5187412;28;20037;-80
2022/02/20 02:50:17;;;;;;;0.50;0.40;;;;;;;4.67;100.00;99585.47;5173029;28;20040;-80
2022/02/20 02:52:47;;;;;;;0.45;0.45;;;;;;;4.81;100.00;99595.47;5186752;28;20539;-79
2022/02/20 02:55:17;;;;;;;1.85;0.40;;;;;;;4.78;100.00;99593.81;5169023;28;20111;-80
2022/02/20 02:57:47;;;;;;;2.47;0.70;;;;;;;4.72;100.00;99599.16;5192204;28;20040;-80
2022/02/20 03:00:18;;;;;;;1.55;0.50;;;;;;;4.92;100.00;99607.22;5192179;28;20048;-79
2022/02/20 03:02:48;;;;;;;1.77;0.75;;;;;;;4.79;100.00;99616.19;5194852;28;20029;-79
2022/02/20 03:05:18;;;;;;;0.93;0.70;;;;;;;4.77;100.00;99610.22;5200005;28;20022;-79
2022/02/20 03:07:49;;;;;;;2.03;0.63;;;;;;;4.80;100.00;99610.13;5192548;28;20032;-79
2022/02/20 03:10:19;;;;;;;2.00;0.80;;;;;;;4.83;100.00;99615.22;5194975;28;20032;-79
2022/02/20 03:12:49;;;;;;;3.40;0.88;;;;;;;4.87;100.00;99622.03;5175846;28;20026;-79
2022/02/20 03:15:20;;;;;;;1.15;0.63;;;;;;;5.04;100.00;99632.75;5203995;28;20026;-79
2022/02/20 03:17:50;;;;;;;1.30;0.90;;;;;;;5.00;100.00;99633.72;5196763;28;20029;-79
2022/02/20 03:20:21;;;;;;;1.50;1.05;;;;;;;5.10;100.00;99637.75;5191970;28;20076;-79
2022/02/20 03:22:51;;;;;;;2.83;1.10;;;;;;;5.08;100.00;99639.53;5195712;28;20499;-79
2022/02/20 03:25:22;;;;;;;2.47;1.20;;;;;;;5.14;100.00;99641.09;5194289;28;20480;-79
2022/02/20 03:27:52;;;;;;;2.10;1.30;;;;;;;5.34;100.00;99647.38;5195637;28;20383;-79
2022/02/20 03:30:22;;;;;;;2.60;1.10;;;;;;;5.34;100.00;99656.91;5196592;28;20052;-79
2022/02/20 03:32:52;;;;;;;2.92;1.35;;;;;;;5.38;100.00;99656.78;5191600;28;20058;-79
2022/02/20 03:35:23;;;;;;;3.60;1.40;;;;;;;5.47;100.00;99669.44;5195799;28;20025;-79
2022/02/20 03:37:54;;;;;;;2.72;1.13;;;;;;;5.41;100.00;99674.81;5194503;28;20251;-79
2022/02/20 03:40:25;;;;;;;1.80;1.27;;;;;;;5.44;100.00;99669.53;5195349;28;20025;-79
2022/02/20 03:42:55;;;;;;;3.25;1.30;;;;;;;5.62;100.00;99674.19;5190828;28;20025;-79
2022/02/20 03:45:29;;;;;;;4.30;1.80;;;;;;;5.58;100.00;99677.75;5191171;28;20120;-79
2022/02/20 03:47:59;;;;;;;3.13;1.80;;;;;;;5.54;100.00;99687.38;5190428;28;20018;-79
2022/02/20 03:50:30;;;;;;;2.92;1.75;;;;;;;5.58;100.00;99693.31;5192061;28;20502;-79
2022/02/20 03:53:00;;;;;;;3.28;1.70;;;;;;;5.58;100.00;99699.31;5193825;28;20625;-79
2022/02/20 03:55:30;;;;;;;4.28;1.77;;;;;;;5.64;100.00;99716.44;5193530;28;20108;-79
2022/02/20 03:58:01;;;;;;;2.58;1.70;;;;;;;5.49;100.00;99709.97;5173666;28;20507;-79
2022/02/20 04:00:31;;;;;;;2.97;1.30;;;;;;;5.49;100.00;99711.69;5191867;28;20041;-79
2022/02/20 04:03:02;;;;;;;1.83;1.08;;;;;;;5.48;100.00;99720.38;5188980;28;20544;-79
2022/02/20 04:05:32;;;;;;;2.35;1.13;;;;;;;5.47;100.00;99727.31;5192035;28;20462;-79
2022/02/20 04:08:03;;;;;;;2.90;1.20;;;;;;;5.49;100.00;99735.03;5177469;28;20030;-79
2022/02/20 04:10:34;;;;;;;2.88;1.55;;;;;;;5.51;100.00;99753.97;5191703;28;20065;-79
2022/02/20 04:13:04;;;;;;;3.55;1.40;;;;;;;5.54;100.00;99746.13;5191758;28;20608;-79
2022/02/20 04:15:34;;;;;;;2.80;1.65;;;;;;;5.60;100.00;99748.53;5191782;28;20065;-79
2022/02/20 04:18:04;;;;;;;3.75;1.52;;;;;;;5.51;100.00;99759.16;5191696;28;20029;-79
2022/02/20 04:20:35;;;;;;;3.65;1.83;;;;;;;5.52;100.00;99771.19;5191622;28;20031;-79
2022/02/20 04:23:05;;;;;;;2.53;1.55;;;;;;;5.46;100.00;99771.38;5193098;28;20030;-79
2022/02/20 04:25:35;;;;;;;2.47;1.75;;;;;;;5.54;100.00;99788.41;5171596;28;20108;-79
2022/02/20 04:28:06;;;;;;;3.25;1.80;;;;;;;5.50;100.00;99785.94;5177358;28;20033;-79
2022/02/20 04:30:36;;;;;;;2.95;1.80;;;;;;;5.50;100.00;99798.91;5193017;28;20029;-79
2022/02/20 04:33:06;;;;;;;2.28;1.38;;;;;;;5.46;100.00;99794.72;5194521;28;20029;-79
2022/02/20 04:35:36;;;;;;;2.47;1.55;;;;;;;5.44;100.00;99809.44;5198688;28;20041;-79
2022/02/20 04:38:07;;;;;;;2.70;1.48;;;;;;;5.43;100.00;99805.16;5193414;28;20034;-79
2022/02/20 04:40:37;;;;;;;4.35;1.60;;;;;;;5.47;100.00;99809.34;5175309;28;20040;-79
2022/02/20 04:43:07;;;;;;;2.25;1.48;;;;;;;5.45;100.00;99821.50;5192900;28;20479;-79
2022/02/20 04:45:37;;;;;;;2.17;1.42;;;;;;;5.51;100.00;99816.16;5192472;28;20029;-79
2022/02/20 04:48:08;;;;;;;3.50;1.55;;;;;;;5.53;100.00;99819.53;5193057;28;20038;-79
2022/02/20 04:50:38;;;;;;;3.42;1.52;;;;;;;5.47;100.00;99830.09;5192977;28;20452;-79
2022/02/20 04:53:08;;;;;;;3.95;1.75;;;;;;;5.45;100.00;99824.09;5193045;28;20044;-79
2022/02/20 04:55:39;;;;;;;3.00;1.67;;;;;;;5.45;100.00;99844.81;5194513;28;20040;-79
2022/02/20 04:58:09;;;;;;;4.60;1.70;;;;;;;5.51;100.00;99855.88;5194422;28;20025;-79
2022/02/20 05:00:39;;;;;;;5.07;2.50;;;;;;;5.51;100.00;99852.41;5191710;28;20039;-79
2022/02/20 05:03:10;;;;;;;4.38;2.70;;;;;;;5.46;100.00;99864.66;5193797;28;20060;-79
2022/02/20 05:05:40;;;;;;;5.50;2.60;;;;;;;5.46;100.00;99854.28;5197733;28;20043;-79
2022/02/20 05:08:10;;;;;;;5.13;3.00;;;;;;;5.42;100.00;99865.63;5194510;28;20392;-79
2022/02/20 05:10:41;;;;;;;4.53;3.05;;;;;;;5.36;100.00;99862.34;5191821;28;20091;-79
2022/02/20 05:13:11;;;;;;;7.20;3.47;;;;;;;5.38;100.00;99861.44;5192805;28;20380;-79
2022/02/20 05:15:41;;;;;;;7.50;3.58;;;;;;;5.27;100.00;99862.56;5193411;28;20021;-79
2022/02/20 05:18:11;;;;;;;7.30;3.97;;;;;;;5.28;100.00;99865.13;5191785;28;20026;-79
2022/02/20 05:20:42;;;;;;;6.30;4.22;;;;;;;5.38;100.00;99876.13;5192137;28;20068;-79
2022/02/20 05:23:13;;;;;;;6.63;4.15;;;;;;;5.35;100.00;99877.03;5173327;28;20034;-79
2022/02/20 05:25:43;;;;;;;7.43;4.38;;;;;;;5.38;100.00;99882.16;5195614;28;20089;-79
2022/02/20 05:28:13;;;;;;;6.13;4.50;;;;;;;5.37;100.00;99889.97;5194792;28;20033;-79
2022/02/20 05:30:44;;;;;;;7.50;4.55;;;;;;;5.38;100.00;99883.88;5191934;28;20626;-79
2022/02/20 05:33:14;;;;;;;9.30;4.82;;;;;;;5.36;100.00;99888.25;5193273;28;20041;-79
2022/02/20 05:35:45;;;;;;;7.25;4.78;;;;;;;5.42;100.00;99889.78;5197264;28;20029;-79
2022/02/20 05:38:16;;;;;;;7.25;4.97;;;;;;;5.45;100.00;99892.31;5195243;28;20108;-80
2022/02/20 05:40:47;;;;;;;10.10;5.40;;;;;;;5.41;100.00;99892.44;5190781;28;20061;-79
2022/02/20 05:43:17;;;;;;;8.80;5.38;;;;;;;5.40;100.00;99895.91;5192015;28;20674;-79
2022/02/20 05:45:47;;;;;;;8.07;5.53;;;;;;;5.33;100.00;99894.34;5188425;28;20033;-79
2022/02/20 05:48:18;;;;;;;8.75;5.60;;;;;;;5.20;100.00;99895.56;5190290;28;20034;-79
2022/02/20 05:50:51;;;;;;;7.28;5.15;;;;;;;5.31;100.00;99906.50;5188945;28;20545;-79
2022/02/20 05:53:22;;;;;;;10.30;6.18;;;;;;;5.26;100.00;99900.59;5173339;28;20620;-79
2022/02/20 05:55:52;;;;;;;8.55;5.95;;;;;;;5.14;100.00;99908.66;5194746;28;20029;-79
2022/02/20 05:58:22;;;;;;;7.85;5.57;;;;;;;5.29;100.00;99913.47;5194765;28;20021;-79
2022/02/20 06:00:53;;;;;;;11.45;6.05;;;;;;;5.25;100.00;99914.44;5190433;28;20025;-79
2022/02/20 06:03:23;;;;;;;9.68;6.05;;;;;;;5.18;100.00;99925.81;5193383;28;20074;-79
2022/02/20 06:05:53;;;;;;;9.25;6.32;;;;;;;5.13;100.00;99917.31;5178801;28;20215;-79
2022/02/20 06:08:24;;;;;;;9.38;6.28;;;;;;;5.19;100.00;99927.50;5175508;28;20030;-79
2022/02/20 06:10:54;;;;;;;8.23;5.88;;;;;;;5.22;100.00;99932.66;5171943;28;20029;-79
2022/02/20 06:13:24;;;;;;;8.75;6.00;;;;;;;5.23;100.00;99931.75;5190878;28;20032;-79
2022/02/20 06:15:55;;;;;;;8.43;6.28;;;;;;;5.12;100.00;99940.69;5191758;28;20033;-79
2022/02/20 06:18:25;;;;;;;9.98;6.28;;;;;;;5.11;100.00;99944.16;5188641;28;20026;-79
2022/02/20 06:20:55;;;;;;;9.88;6.32;;;;;;;5.24;100.00;99941.22;5191416;28;20025;-79
2022/02/20 06:23:25;;;;;;;7.78;6.05;;;;;;;5.16;100.00;99956.06;5188582;28;20520;-79
2022/02/20 06:25:56;;;;;;;9.90;6.38;;;;;;;5.04;100.00;99958.97;5192303;28;20025;-79
2022/02/20 06:28:26;;;;;;;10.07;6.75;;;;;;;5.14;100.00;99942.31;5191979;28;20037;-79
2022/02/20 06:30:56;;;;;;;8.82;6.40;;;;;;;5.09;100.00;99954.53;5188290;28;20022;-79
2022/02/20 06:33:27;;;;;;;8.75;6.38;;;;;;;5.11;100.00;99960.53;5195383;28;20033;-79
2022/02/20 06:35:57;;;;;;;9.02;6.68;;;;;;;5.11;100.00;99960.53;5201828;28;20029;-79
2022/02/20 06:38:27;;;;;;;9.75;5.75;;;;;;;5.04;100.00;99969.34;5198319;28;20025;-79
2022/02/20 06:40:57;;;;;;;11.20;6.20;;;;;;;4.97;100.00;99967.75;5196349;28;20029;-79
2022/02/20 06:43:28;;;;;;;9.80;6.93;;;;;;;5.02;100.00;99971.13;5196998;28;20043;-80
2022/02/20 06:45:58;;;;;;;11.88;7.13;;;;;;;5.07;100.00;99958.91;5194863;28;20137;-80
2022/02/20 06:48:28;;;;;;;9.40;6.47;;;;;;;4.94;100.00;99965.25;5178483;28;20498;-80
2022/02/20 06:50:59;;;;;;;8.90;6.03;;;;;;;5.09;100.00;99958.84;5193631;28;20025;-80
2022/02/20 06:53:29;;;;;;;8.90;6.72;;;;;;;5.05;100.00;99965.84;5191617;28;20057;-79
2022/02/20 06:55:59;;;;;;;10.13;7.35;;;;;;;5.11;100.00;99964.88;5201714;28;20082;-79
2022/02/20 06:58:29;;;;;;;12.30;8.10;;;;;;;5.17;100.00;99962.13;5197308;28;20033;-79
2022/02/20 07:01:00;;;;;;;11.45;8.02;;;;;;;5.06;100.00;99967.56;5191489;28;20072;-79
2022/02/20 07:03:30;;;;;;;11.98;7.25;;;;;;;5.19;100.00;99975.88;5196335;28;20033;-79
2022/02/20 07:06:00;;;;;;;11.53;7.50;;;;;;;5.22;100.00;99968.91;5191484;28;20388;-79
2022/02/20 07:08:31;;;;;;;11.98;7.95;;;;;;;5.36;100.00;99974.56;5178972;28;20836;-79
2022/02/20 07:11:02;;;;;;;11.57;7.30;;;;;;;5.27;100.00;99973.94;5194167;28;20466;-79
2022/02/20 07:13:32;;;;;;;9.80;6.25;;;;;;;5.21;100.00;99981.88;5193623;28;20041;-80
2022/02/20 07:16:03;;;;;;;9.50;6.78;;;;;;;5.20;100.00;99973.28;5194066;28;20040;-80
2022/02/20 07:18:34;;;;;;;10.68;6.47;;;;;;;5.16;100.00;99976.78;5196131;28;21051;-79
2022/02/20 07:21:04;;;;;;;8.40;5.40;;;;;;;5.27;100.00;99976.53;5194221;28;20029;-79
2022/02/20 07:23:34;;;;;;;8.27;5.30;;;;;;;5.26;100.00;99978.28;5195596;28;20030;-79
2022/02/20 07:26:05;;;;;;;10.23;4.22;;;;;;;5.33;100.00;99976.41;5199152;28;20029;-79
2022/02/20 07:28:35;;;;;;;8.90;3.80;;;;;;;5.32;100.00;99966.94;5195994;28;20034;-79
2022/02/20 07:31:05;;;;;;;7.93;3.20;;;;;;;5.35;100.00;99962.50;5197700;28;20055;-79
2022/02/20 07:33:36;;;;;;;7.32;3.00;;;;;;;5.42;100.00;99970.09;5197446;28;20083;-80
2022/02/20 07:36:06;;;;;;;4.35;2.50;;;;;;;5.37;100.00;99972.84;5195927;28;20100;-80
2022/02/20 07:38:36;;;;;;;6.18;2.65;;;;;;;5.43;100.00;99973.56;5196447;28;20640;-79
2022/02/20 07:41:06;;;;;;;7.97;2.75;;;;;;;5.42;100.00;99975.28;5197222;28;20022;-79
2022/02/20 07:43:37;;;;;;;7.10;2.50;;;;;;;5.45;100.00;99967.47;5196809;28;20033;-79
2022/02/20 07:46:07;;;;;;;4.63;2.30;;;;;;;5.49;100.00;99970.81;5191234;28;20055;-79
2022/02/20 07:48:39;;;;;;;5.38;2.20;;;;;;;5.49;100.00;99978.56;5191782;28;20060;-79
2022/02/20 07:51:09;;;;;;;3.47;2.10;;;;;;;5.55;100.00;99976.69;5192311;28;20022;-79
2022/02/20 07:53:41;;;;;;;8.25;2.70;;;;;;;5.56;100.00;99972.38;5197092;28;20029;-79
2022/02/20 07:56:12;;;;;;;7.25;2.60;;;;;;;5.52;100.00;99974.19;5193604;28;20037;-79
2022/02/20 07:58:43;;;;;;;6.75;2.85;;;;;;;5.57;100.00;99974.06;5192766;28;20024;-79
2022/02/20 08:01:14;;;;;;;7.65;3.10;;;;;;;5.51;100.00;99974.22;5190033;28;20033;-79
2022/02/20 08:03:44;;;;;;;8.30;3.28;;;;;;;5.57;100.00;99972.31;5189361;28;20408;-79
2022/02/20 08:06:15;;;;;;;6.43;3.05;;;;;;;5.53;100.00;99975.88;5189504;28;20557;-79
2022/02/20 08:08:45;;;;;;;7.03;2.60;;;;;;;5.66;100.00;99968.63;5172438;28;20484;-79
2022/02/20 08:11:17;;;;;;;6.10;2.60;;;;;;;5.70;100.00;99972.84;5190519;28;20736;-79
2022/02/20 08:13:47;;;;;;;5.32;2.80;;;;;;;5.57;100.00;99959.34;5196994;28;20112;-80
2022/02/20 08:16:18;;;;;;;7.88;2.30;;;;;;;5.78;100.00;99956.25;5189775;28;20476;-80
2022/02/20 08:18:48;;;;;;;5.32;2.10;;;;;;;5.62;100.00;99943.69;5189903;28;20160;-80
2022/02/20 08:21:19;;;;;;;5.43;2.53;;;;;;;5.70;100.00;99954.69;5190352;28;20511;-80
2022/02/20 08:23:50;;;;;;;6.28;2.40;;;;;;;5.69;100.00;99942.63;5191622;28;20029;-80
2022/02/20 08:26:22;;;;;;;4.38;2.72;;;;;;;5.66;100.00;99935.81;5191907;28;20093;-80
2022/02/20 08:28:52;;;;;;;6.40;3.20;;;;;;;5.70;100.00;99941.75;5191648;28;20079;-80
2022/02/20 08:31:22;;;;;;;6.68;3.53;;;;;;;5.75;100.00;99929.53;5187610;28;21315;-80
2022/02/20 08:33:53;;;;;;;8.10;3.72;;;;;;;5.75;100.00;99924.34;5191790;28;20423;-80
2022/02/20 08:36:24;;;;;;;7.30;3.25;;;;;;;5.67;100.00;99921.09;5196775;28;20511;-80
2022/02/20 08:38:54;;;;;;;9.98;3.92;;;;;;;5.69;100.00;99919.31;5191421;28;20061;-79
2022/02/20 08:41:24;;;;;;;6.88;3.85;;;;;;;5.58;100.00;99913.56;5193518;28;20040;-79
2022/02/20 08:43:55;;;;;;;6.97;3.65;;;;;;;5.90;100.00;99908.41;5189617;28;20029;-79
2022/02/20 08:46:25;;;;;;;7.15;3.60;;;;;;;5.80;100.00;99902.63;5189237;28;20030;-79
2022/02/20 08:48:55;;;;;;;12.15;4.25;;;;;;;5.93;100.00;99898.78;5185589;28;20076;-79
2022/02/20 08:51:25;;;;;;;8.13;4.22;;;;;;;5.82;100.00;99894.81;5193589;28;20033;-79
2022/02/20 08:53:56;;;;;;;5.93;3.13;;;;;;;5.91;100.00;99889.38;5173796;28;20030;-79
2022/02/20 08:56:26;;;;;;;8.18;3.20;;;;;;;5.75;100.00;99883.72;5188429;28;20033;-79
2022/02/20 08:58:59;;;;;;;7.22;3.15;;;;;;;5.87;100.00;99874.78;5191875;28;20498;-79
2022/02/20 09:01:30;;;;;;;5.78;3.13;;;;;;;5.83;100.00;99870.56;5191828;28;20113;-79
2022/02/20 09:04:03;;;;;;;6.40;3.10;;;;;;;5.93;100.00;99866.84;5195399;28;20590;-79
2022/02/20 09:06:34;;;;;;;8.05;4.13;;;;;;;5.94;100.00;99863.34;5194857;28;20037;-79
2022/02/20 09:09:05;;;;;;;4.80;2.92;;;;;;;5.96;100.00;99853.78;5187327;28;20928;-79
2022/02/20 09:11:37;;;;;;;9.15;3.58;;;;;;;5.87;100.00;99847.13;5191197;28;20037;-79
2022/02/20 09:14:07;;;;;;;8.00;3.25;;;;;;;5.73;100.00;99845.78;5190576;28;20025;-79
2022/02/20 09:16:38;;;;;;;7.53;3.60;;;;;;;5.81;100.00;99836.94;5190394;28;20510;-79
2022/02/20 09:19:08;;;;;;;5.75;3.40;;;;;;;5.70;100.00;99830.28;5190702;28;20534;-79
2022/02/20 09:21:38;;;;;;;6.22;3.30;;;;;;;5.72;100.00;99819.00;5187691;28;20041;-79
2022/02/20 09:24:09;;;;;;;5.95;3.30;;;;;;;5.80;100.00;99809.31;5187983;28;20708;-79
2022/02/20 09:26:39;;;;;;;6.07;3.40;;;;;;;5.85;100.00;99801.38;5196161;28;20089;-79
2022/02/20 09:29:10;;;;;;;8.32;3.53;;;;;;;5.78;100.00;99797.25;5195311;28;20736;-79
2022/02/20 09:31:40;;;;;;;6.47;3.40;;;;;;;5.77;100.00;99792.97;5193607;28;20039;-79
2022/02/20 09:34:11;;;;;;;7.57;3.33;;;;;;;5.59;100.00;99780.53;5190093;28;20041;-79
2022/02/20 09:36:41;;;;;;;6.18;3.30;;;;;;;5.67;100.00;99770.78;5191157;28;20057;-79
2022/02/20 09:39:11;;;;;;;6.90;3.08;;;;;;;5.63;100.00;99754.47;5188837;28;20093;-79
2022/02/20 09:41:42;;;;;;;8.70;3.17;;;;;;;5.69;100.00;99750.84;5192432;28;20083;-80
2022/02/20 09:44:13;;;;;;;6.88;2.95;;;;;;;5.77;100.00;99746.28;5188640;28;20056;-80
2022/02/20 09:46:44;;;;;;;6.53;2.60;;;;;;;5.75;100.00;99733.38;5190845;28;20075;-80
2022/02/20 09:49:15;;;;;;;4.75;2.38;;;;;;;5.85;100.00;99728.78;5170839;28;20286;-80
2022/02/20 09:51:45;;;;;;;6.65;2.42;;;;;;;5.89;100.00;99720.06;5190362;28;20171;-80
2022/02/20 09:54:15;;;;;;;5.30;2.33;;;;;;;5.84;100.00;99716.72;5187814;28;20432;-80
2022/02/20 09:56:45;;;;;;;3.63;2.17;;;;;;;5.92;100.00;99714.75;5192099;28;20034;-80
2022/02/20 09:59:16;;;;;;;12.48;2.28;;;;;;;5.88;100.00;99698.44;5189445;28;20032;-80
2022/02/20 10:02:04;;;;;;;8.73;2.30;;;;;;;5.90;100.00;99693.22;5187446;28;20480;-80
2022/02/20 10:04:45;;;;;;;5.95;2.00;;;;;;;5.88;100.00;99682.06;5192110;28;20598;-80
2022/02/20 10:07:29;;;;;;;3.67;1.85;;;;;;;5.87;100.00;99680.34;5187321;28;20683;-80
2022/02/20 10:10:05;;;;;;;5.40;1.77;;;;;;;5.89;100.00;99678.56;5190006;28;20059;-79
2022/02/20 10:12:35;;;;;;;6.15;2.10;;;;;;;5.96;100.00;99672.28;5195068;28;20095;-80
2022/02/20 10:15:29;;;;;;;5.70;2.00;;;;;;;5.99;100.00;99659.22;5192845;28;20034;-80
2022/02/20 10:18:10;;;;;;;4.03;1.50;;;;;;;6.00;100.00;99666.09;5180053;28;20034;-80
2022/02/20 10:20:41;;;;;;;3.55;1.88;;;;;;;6.10;100.00;99646.75;5195116;28;20119;-80
2022/02/20 10:23:13;;;;;;;7.38;1.85;;;;;;;6.16;100.00;99650.00;5193281;28;20111;-80
2022/02/20 10:25:44;;;;;;;6.90;1.90;;;;;;;6.27;100.00;99645.28;5177416;28;20052;-81
2022/02/20 10:28:15;;;;;;;6.15;1.95;;;;;;;6.27;100.00;99652.25;5191344;28;20030;-80
2022/02/20 10:30:46;;;;;;;6.05;1.65;;;;;;;6.39;100.00;99636.28;5191186;28;20030;-81
2022/02/20 10:33:22;;;;;;;6.38;1.60;;;;;;;6.39;100.00;99625.91;5201742;28;20026;-80
2022/02/20 10:35:54;;;;;;;;;;;;;;;6.45;100.00;99633.47;5198193;28;20108;-80
2022/02/20 10:38:26;;;;;;;3.47;1.45;;;;;;;6.49;100.00;99619.47;5194260;28;19917;-81
2022/02/20 10:40:56;;;;;;;4.70;1.30;;;;;;;6.58;100.00;99624.38;5189920;28;20471;-81
2022/02/20 10:43:31;;;;;;;9.75;1.58;;;;;;;6.57;100.00;99633.06;5179973;28;20049;-80
2022/02/20 10:46:20;;;;;;;3.35;1.42;;;;;;;6.64;100.00;99616.34;5194296;28;20026;-80
2022/02/20 10:48:53;;;;;;;5.30;1.30;;;;;;;6.74;100.00;99602.16;5179935;28;20137;-80
2022/02/20 10:51:23;;;;;;;5.95;1.30;;;;;;;6.67;100.00;99593.75;5196435;28;20025;-80
2022/02/20 10:54:02;;;;;;;2.88;1.13;;;;;;;6.71;100.00;99591.84;5196808;28;20037;-81
2022/02/20 10:56:43;;;;;;;3.58;1.10;;;;;;;6.79;100.00;99592.44;5192773;28;20057;-81
2022/02/20 10:59:13;;;;;;;5.57;1.33;;;;;;;6.85;100.00;99589.63;5198719;28;20032;-80
2022/02/20 11:01:44;;;;;;;4.93;1.10;;;;;;;6.90;100.00;99572.16;5192475;28;20025;-80
2022/02/20 11:04:15;;;;;;;5.18;1.15;;;;;;;7.00;100.00;99569.16;5194120;28;20055;-80
2022/02/20 11:06:49;;;;;;;6.30;1.33;;;;;;;6.86;100.00;99567.94;5201946;28;20507;-80
2022/02/20 11:09:19;;;;;;;4.40;1.23;;;;;;;6.94;100.00;99569.34;5190476;28;20095;-81
2022/02/20 11:11:50;;;;;;;4.63;1.20;;;;;;;7.00;100.00;99570.88;5196926;28;20026;-80
2022/02/20 11:14:21;;;;;;;4.57;1.10;;;;;;;6.98;100.00;99567.50;5189200;28;20022;-80
2022/02/20 11:16:53;;;;;;;4.30;1.00;;;;;;;7.11;100.00;99563.53;5196216;28;20649;-79
2022/02/20 11:19:25;;;;;;;3.30;1.15;;;;;;;6.97;100.00;99558.03;5195719;28;20033;-79
2022/02/20 11:22:01;;;;;;;6.45;1.25;;;;;;;7.07;100.00;99546.41;5193820;28;20022;-79
2022/02/20 11:24:34;;;;;;;2.10;1.10;;;;;;;7.18;100.00;99546.81;5194564;28;20103;-79
2022/02/20 11:27:05;;;;;;;3.42;1.00;;;;;;;7.20;100.00;99545.00;5195489;28;20538;-79
2022/02/20 11:29:36;;;;;;;4.32;1.02;;;;;;;7.22;100.00;99534.47;5189863;28;20085;-79
2022/02/20 11:32:09;;;;;;;5.32;1.30;;;;;;;7.25;100.00;99536.13;5195949;28;20022;-79
2022/02/20 11:34:44;;;;;;;4.65;1.10;;;;;;;7.31;100.00;99521.16;5200299;28;20483;-79
2022/02/20 11:37:15;;;;;;;4.38;1.00;;;;;;;7.37;100.00;99531.28;5193854;28;20025;-80
2022/02/20 11:40:02;;;;;;;5.90;0.90;;;;;;;7.50;100.00;99500.47;5196016;28;20037;-80
2022/02/20 11:42:35;;;;;;;3.58;1.35;;;;;;;7.60;100.00;99502.66;5194148;28;20184;-80
2022/02/20 11:45:07;;;;;;;3.72;1.35;;;;;;;7.57;100.00;99496.72;5192725;28;20052;-80
2022/02/20 11:47:42;;;;;;;3.47;1.25;;;;;;;7.54;100.00;99489.88;5192859;28;20650;-80
2022/02/20 11:50:16;;;;;;;4.25;1.13;;;;;;;7.56;100.00;99474.22;5190532;28;20060;-80
2022/02/20 11:52:57;;;;;;;2.40;1.10;;;;;;;7.63;100.00;99470.44;5201732;28;20128;-80